NCAR-RAP Real-Time Weather Data

Output produced by METARs form (18 August 2018  01:02 UTC)
found at http://weather.rap.ucar.edu/surface/
 
RJOB 180000Z 03004KT 330V090 9999 FEW030 SCT/// 22/14 Q1013
RJOB 172300Z VRB03KT 9999 FEW020 BKN/// 21/14 Q1013
RJOB 172200Z VRB02KT 9999 FEW020 BKN/// 18/15 Q1013
RJOB 172115Z VRB02KT 9999 FEW020 BKN/// 16/14 Q1013 RMK 1CU020 A2992
RJOB 171200Z 01008KT 9999 FEW025 20/14 Q1012
RJOB 171100Z 01009KT 9999 FEW030 21/13 Q1012
RJOB 171000Z 02011KT 9999 FEW030 22/12 Q1011
RJOB 170900Z 01011KT 340V040 9999 FEW030 24/13 Q1011
RJOB 170800Z 02012KT 350V050 9999 FEW030 26/13 Q1010
RJOB 170700Z 01010KT 330V060 9999 FEW030 27/13 Q1010
RJOB 170600Z 03011KT 350V070 9999 FEW030 27/14 Q1010
RJOB 170500Z 02011KT 350V060 9999 FEW030 SCT050 BKN/// 28/15 Q1010
RJOB 170420Z 36013KT 340V050 9999 FEW030 SCT050 BKN/// 28/16 Q1011 RMK 1CU030 3SC050 A2986
RJOB 170400Z 06016KT 9999 FEW030 SCT045 BKN/// 28/14 Q1011
RJOB 170300Z 04013G24KT 350V080 9999 FEW030 SCT040 BKN/// 28/15 Q1011
RJOB 170200Z 36009KT 310V040 9999 FEW030 SCT040 28/17 Q1012
RJOB 170100Z 03009KT 360V080 9999 FEW025 SCT035 26/17 Q1012
RJOB 170000Z 02009KT 340V080 9999 FEW020 25/17 Q1012
RJOB 162300Z 02006KT 340V070 9999 FEW015 24/18 Q1012
RJOB 162200Z 01003KT 300V050 CAVOK 22/17 Q1012
RJOB 162115Z 32003KT 280V010 CAVOK 21/17 Q1012 RMK A2989
RJOB 161200Z 34003KT 240V050 9999 FEW006 BKN080 24/22 Q1011
RJOB 161100Z VRB03KT 9999 FEW006 BKN070 24/22 Q1010
RJOB 161000Z 34004KT 300V030 9999 FEW006 BKN070 BKN/// 25/23 Q1010
RJOB 160900Z VRB01KT 9999 FEW002 SCT060 BKN080 26/25 Q1009
RJOB 160800Z 25006KT 9999 FEW003 SCT060 BKN080 26/25 Q1009
RJOB 160700Z 27007KT 240V300 9999 PRFG FEW000 SCT015 BKN080 26/25 Q1009
RJOB 160600Z 23006KT 7000 -SHRA FEW000 SCT006 BKN080 26/25 Q1009
RJOB 160500Z 24005KT 7000 SHRA FEW007 SCT010 FEW025CB BKN080 26/25 Q1009
RJOB 160400Z 25008KT 7000 FEW002 SCT007 BKN010 FEW025CB 27/25 Q1009
RJOB 160314Z 21008KT 3500 BR FEW002 SCT007 BKN020 26/26 Q1009 RMK 1ST002 4ST007 5CU020 A2982
RJOB 160300Z 19007KT 140V220 1500 R07/P2000N -SHRA BR FEW002 SCT010 BKN030 26/25 Q1009
RJOB 160230Z 22008KT 180V250 1500 R07/P2000N SHRA BR FEW009 SCT010 BKN020 26/25 Q1010 RMK 1ST009 4CU010 6CU020 A2984
RJOB 160200Z 21010KT 180V240 9999 FEW009 SCT010 BKN060 28/24 Q1010
RJOB 160100Z 22006KT 180V250 9999 FEW008 SCT010 BKN080 27/25 Q1010
RJOB 160000Z VRB02KT 9999 PRFG FEW000 SCT050 BKN160 26/24 Q1010
RJOB 152300Z VRB01KT 9999 PRFG FEW000 SCT060 BKN180 26/24 Q1010
RJOB 152200Z 31004KT 9999 BCFG FEW000 SCT170 BKN/// 25/24 Q1010
RJOB 152115Z VRB01KT 9999 PRFG FEW000 SCT150 BKN/// 24/24 Q1009 RMK 1ST000 3AC150 A2981 FG NE-E